Main page
METAR-TAF:

METAR-TAF

Airports :

Chiang Rai International Airport

Chiang Rai, Thailand

latitude: 19-57-08N, longitude: 099-52-59E, elevation: 390 m

Current weather observation

The report was made 44 minutes ago, at 02:00 UTC
Calm wind
Temperature 30°C
Humidity 55%
Pressure 1009 hPa
Visibility: 8000 m

METAR: VTCT 230200Z 00000KT 8000 NSC 30/20 Q1009 NOSIG

Time: 09:44 (02:44 UTC)

Forecast

The report was made 3 hours and 44 minutes ago, at 23:00 UTC
Forecast valid from 23 at 00 UTC to 24 at 06 UTC
Wind 5 kt from the Southwest
Visibility: 9000 m
Few clouds at a height of 4000 ft
Becoming
from 23 at 01 UTC to 23 at 03 UTC
Wind 5 kt from the Southeast
Becoming
from 23 at 10 UTC to 23 at 12 UTC
Wind 5 kt from the West
Becoming
from 24 at 01 UTC to 24 at 03 UTC
Wind 5 kt from the East

TAF: VTCT 222300Z 2300/2406 23005KT 9000 FEW040 BECMG 2301/2303 13005KT BECMG 2310/2312 26005KT BECMG 2401/2403 10005KT

Weather observations and forecasts of more than 4000 airports (METAR and TAF reports).

The available stations are represented by yellow and red dots on the map.

Hover mouse over dot to see the name of the station.

Then click to see weather observations and forecasts.

To change the map : click on the green buttons with a black cross to zoom in, on the green button with a dash to zoom out, or on the green arrows for adjacent maps.


METAR-TAF: